Huvudsida
METAR-TAF:

METAR-TAF

Flygplatser :

Florø flygplats

Florø, Norge

latitud: 61-35N, longitud: 005-02E, höjd: 0 m

Aktuellt väderrapport

Denna rapport gjordes för 15 minuter sedan, klockan 19:20 UTC
Vind 4 kt från väst/sydväst
Temperatur 12°C
Fuktighet 82%
Tryck 1026 hPa
Sikt 10 km eller mer
Få moln på en höjd av 1200 ft
Brutna moln på en höjd av 3000 ft

METAR: ENFL 251920Z 24004KT 9999 FEW012 BKN030 12/09 Q1026

Tid: 21:35 (19:35 UTC)

Väderprognos

Denna rapport gjordes för 5 timmar och 35 minuter sedan, klockan 14:00 UTC
Prognos gäller från 25 kl. 15 UTC till 25 kl. 20 UTC
Vind 10 kt från väst/sydväst
Sikt 10 km eller mer
Få moln på en höjd av 1000 ft
Spridda moln på en höjd av 1500 ft
Brutna moln på en höjd av 2000 ft
Blir
från 25 kl. 18 UTC till 25 kl. 20 UTC
Vind 8 kt från väst/nordväst
Brutna moln på en höjd av 800 ft

TAF: ENFL 251400Z 2515/2520 24010KT 9999 FEW010 SCT015 BKN020 BECMG 2518/2520 30008KT BKN008

Aktuella väderrapporter och prognoser från 4000 flygplatser (METAR- och TAF-rapporter).

De tillgängliga stationerna syns som gula och röda prickar på kartan.

För musen över prickarna för att se namnen på stationerna.

Klicka sedan för att få väderrapporter och prognoser.

För att ändra kartan: Klicka på de gröna knapparna med ett svart kors på för att zooma in; den gröna knappen med ett streck på för att zooma ut; eller på de gröna pilarna för angränsande kartor.


METAR-TAF: